Time;durP1;ratioP1;P1;durP2;ratioP2;P2;SDS_P1;SDS_P2;PMS_P1;PMS_P2;Temp;Humidity;BMP_temperature;BMP_pressure;BME280_temperature;BME280_humidity;BME280_pressure;Samples;Min_cycle;Max_cycle;Signal;HPM_P1;HPM_P2
2023/01/05 00:01:47;;;;;;;27.80;17.97;;;;;;;9.03;98.88;95718.34;5054347;28;20511;-86
2023/01/05 00:04:14;;;;;;;30.73;19.30;;;;;;;9.05;98.91;95713.88;5054272;28;20446;-86
2023/01/05 00:06:42;;;;;;;30.40;19.03;;;;;;;9.07;98.41;95714.59;5054627;28;20457;-85
2023/01/05 00:09:12;;;;;;;29.70;17.60;;;;;;;9.11;97.76;95713.44;5054671;28;20503;-85
2023/01/05 00:23:31;;;;;;;30.10;18.40;;;;;;;9.17;97.11;95699.09;5054048;28;20492;-86
2023/01/05 00:26:00;;;;;;;29.33;18.20;;;;;;;9.16;96.94;95700.88;5054463;28;20452;-86
2023/01/05 00:28:26;;;;;;;34.97;20.10;;;;;;;9.15;96.99;95701.84;5054790;28;20855;-86
2023/01/05 00:30:54;;;;;;;66.87;35.13;;;;;;;9.08;97.11;95705.81;5054767;28;20442;-86
2023/01/05 00:33:21;;;;;;;63.30;34.60;;;;;;;9.12;97.19;95691.56;5054503;28;20454;-86
2023/01/05 00:35:47;;;;;;;47.87;27.20;;;;;;;9.10;97.64;95695.22;5054156;28;20442;-86
2023/01/05 00:38:34;;;;;;;44.70;26.80;;;;;;;8.89;98.85;95694.84;5053857;28;20486;-86
2023/01/05 00:41:03;;;;;;;39.40;24.10;;;;;;;8.78;99.35;95692.09;5054833;28;20905;-86
2023/01/05 00:43:30;;;;;;;38.50;22.50;;;;;;;8.53;100.00;95688.44;5053806;28;20453;-85
2023/01/05 00:45:56;;;;;;;37.83;22.97;;;;;;;8.25;100.00;95683.25;5053925;28;20438;-86
2023/01/05 00:48:23;;;;;;;43.00;24.93;;;;;;;8.38;100.00;95685.03;5054133;28;20421;-86
2023/01/05 00:50:50;;;;;;;38.67;23.63;;;;;;;8.39;100.00;95683.28;5053783;28;20434;-86
2023/01/05 00:53:17;;;;;;;37.27;22.60;;;;;;;8.41;100.00;95681.41;5054602;28;20457;-86
2023/01/05 00:55:44;;;;;;;33.00;22.70;;;;;;;8.48;100.00;95679.22;5053816;28;20448;-86
2023/01/05 00:58:12;;;;;;;36.87;24.10;;;;;;;8.38;100.00;95678.94;5053240;28;20501;-86
2023/01/05 01:00:39;;;;;;;39.80;23.47;;;;;;;8.49;100.00;95676.50;5053607;28;20458;-85
2023/01/05 01:03:06;;;;;;;35.57;21.50;;;;;;;8.53;100.00;95677.16;5053711;28;20445;-85
2023/01/05 01:22:22;;;;;;;42.87;26.10;;;;;;;8.66;99.96;95678.84;5052786;28;20483;-86
2023/01/05 01:24:49;;;;;;;41.00;26.83;;;;;;;8.62;100.00;95666.91;5053972;28;20434;-86
2023/01/05 01:27:16;;;;;;;45.57;26.67;;;;;;;8.66;100.00;95660.53;5053220;28;20884;-86
2023/01/05 01:29:43;;;;;;;42.53;25.37;;;;;;;8.73;100.00;95668.84;5053367;28;20464;-86
2023/01/05 01:35:31;;;;;;;41.37;24.57;;;;;;;8.83;100.00;95659.44;5052310;28;20981;-85
2023/01/05 01:37:59;;;;;;;51.23;27.33;;;;;;;8.89;100.00;95660.81;5053333;28;20546;-86
2023/01/05 01:40:26;;;;;;;50.20;26.90;;;;;;;8.94;100.00;95645.66;5053481;28;20928;-85
2023/01/05 01:42:53;;;;;;;38.43;25.03;;;;;;;9.03;99.95;95652.06;5053883;28;20867;-86
2023/01/05 01:45:22;;;;;;;38.57;24.30;;;;;;;9.09;99.07;95644.66;5053351;28;20859;-85
2023/01/05 01:47:54;;;;;;;42.40;26.50;;;;;;;9.13;99.28;95630.41;5053180;28;20496;-85
2023/01/05 01:50:26;;;;;;;42.67;25.00;;;;;;;9.13;98.38;95630.41;5053671;28;20806;-85
2023/01/05 01:56:41;;;;;;;38.43;24.43;;;;;;;9.05;97.70;95626.63;5052972;28;20428;-85
2023/01/05 01:59:09;;;;;;;44.23;24.20;;;;;;;8.94;98.02;95616.84;5019768;28;20469;-85
2023/01/05 02:01:36;;;;;;;38.43;23.40;;;;;;;8.88;98.50;95612.88;5053258;28;20788;-85
2023/01/05 02:04:05;;;;;;;44.17;26.00;;;;;;;8.86;99.26;95611.31;5053301;28;20434;-85
2023/01/05 02:09:36;;;;;;;42.97;26.60;;;;;;;8.81;99.13;95601.16;4991462;28;20511;-86
2023/01/05 02:12:19;;;;;;;40.57;25.67;;;;;;;8.78;99.23;95597.91;4991828;28;20440;-86
2023/01/05 02:14:59;;;;;;;44.37;24.37;;;;;;;8.81;99.33;95597.69;4992134;28;20534;-86
2023/01/05 02:17:36;;;;;;;44.23;24.97;;;;;;;8.83;99.21;95593.19;4994877;28;20487;-85
2023/01/05 02:30:44;;;;;;;39.23;24.40;;;;;;;8.93;98.06;95573.31;4994354;28;21064;-86
2023/01/05 02:33:20;;;;;;;36.53;23.33;;;;;;;8.93;98.16;95570.69;5014859;28;20453;-85
2023/01/05 02:35:55;;;;;;;42.47;25.07;;;;;;;8.87;98.09;95561.47;5021270;28;20461;-85
2023/01/05 02:38:28;;;;;;;41.73;24.03;;;;;;;8.90;98.03;95566.50;5056942;28;20500;-86
2023/01/05 02:41:00;;;;;;;39.77;25.30;;;;;;;8.88;98.46;95578.03;5056245;28;20430;-85
2023/01/05 02:43:28;;;;;;;40.20;24.87;;;;;;;8.78;99.29;95569.94;5056321;28;20967;-85
2023/01/05 02:45:56;;;;;;;45.17;27.27;;;;;;;8.75;98.84;95566.72;5056450;28;20810;-85
2023/01/05 02:48:24;;;;;;;44.97;27.63;;;;;;;8.67;100.00;95570.69;5056232;28;20487;-86
2023/01/05 02:50:59;;;;;;;48.63;28.27;;;;;;;8.65;100.00;95575.16;5021158;28;20433;-86
2023/01/05 02:53:33;;;;;;;63.83;30.73;;;;;;;8.66;100.00;95568.97;5055741;28;20527;-85
2023/01/05 03:02:55;;;;;;;46.07;28.63;;;;;;;8.64;100.00;95565.63;5055783;28;20412;-85
2023/01/05 03:05:26;;;;;;;44.97;28.40;;;;;;;8.67;100.00;95554.97;5056235;28;20453;-85
2023/01/05 03:08:05;;;;;;;45.20;27.57;;;;;;;8.72;100.00;95545.97;5022129;28;20866;-85
2023/01/05 03:16:07;;;;;;;51.30;29.17;;;;;;;8.55;100.00;95529.63;5055367;28;20471;-85
2023/01/05 03:36:42;;;;;;;39.50;25.00;;;;;;;8.57;100.00;95501.59;5055257;28;20465;-85
2023/01/05 03:39:10;;;;;;;39.07;26.53;;;;;;;8.62;100.00;95504.72;5055177;28;20504;-85
2023/01/05 03:41:39;;;;;;;44.40;25.77;;;;;;;8.69;100.00;95510.41;5055190;28;20464;-85
2023/01/05 03:44:07;;;;;;;46.57;25.43;;;;;;;8.75;100.00;95504.75;5055152;28;20437;-85
2023/01/05 03:46:34;;;;;;;39.67;25.67;;;;;;;8.80;100.00;95507.88;5055179;28;20434;-85
2023/01/05 03:49:00;;;;;;;34.63;23.33;;;;;;;8.88;98.99;95499.50;5054484;28;20434;-85
2023/01/05 03:51:27;;;;;;;38.40;24.43;;;;;;;8.88;99.36;95505.56;5020157;28;20936;-86
2023/01/05 03:53:54;;;;;;;50.77;24.93;;;;;;;8.91;98.43;95504.53;5054868;28;20496;-86
2023/01/05 03:56:21;;;;;;;34.67;22.17;;;;;;;8.93;98.97;95518.34;5054882;28;20479;-85
2023/01/05 03:58:49;;;;;;;44.70;26.40;;;;;;;8.95;98.45;95512.06;5054505;28;21152;-85
2023/01/05 04:01:43;;;;;;;45.27;25.80;;;;;;;8.96;98.17;95513.75;5043845;28;20478;-85
2023/01/05 04:04:10;;;;;;;45.07;27.00;;;;;;;8.96;98.48;95507.66;5054652;28;20449;-85
2023/01/05 04:06:36;;;;;;;49.53;28.97;;;;;;;8.96;98.10;95499.81;5054476;28;20916;-85
2023/01/05 04:09:03;;;;;;;45.60;27.80;;;;;;;8.94;98.28;95492.06;5054800;28;20450;-86
2023/01/05 04:11:30;;;;;;;40.90;25.87;;;;;;;8.92;98.26;95501.81;5054453;28;20521;-85
2023/01/05 04:13:58;;;;;;;47.23;28.13;;;;;;;8.94;98.03;95499.06;5054578;28;20858;-86
2023/01/05 04:16:27;;;;;;;49.30;28.47;;;;;;;8.94;98.62;95492.06;5054900;28;20438;-86
2023/01/05 04:18:54;;;;;;;51.23;29.27;;;;;;;8.98;97.99;95484.88;5054292;28;20967;-86
2023/01/05 04:21:21;;;;;;;48.27;26.60;;;;;;;8.96;98.70;95487.59;5054297;28;20818;-86
2023/01/05 04:23:47;;;;;;;39.00;25.27;;;;;;;9.00;98.66;95482.97;5054438;28;20914;-86
2023/01/05 04:26:14;;;;;;;47.20;26.27;;;;;;;9.03;98.31;95480.16;5048979;28;20451;-84
2023/01/05 04:28:41;;;;;;;39.23;26.43;;;;;;;9.08;98.17;95480.66;5051902;28;20856;-85
2023/01/05 04:31:09;;;;;;;35.07;25.80;;;;;;;9.10;97.43;95478.78;5053770;28;20441;-84
2023/01/05 04:33:38;;;;;;;44.17;27.03;;;;;;;9.12;97.53;95482.13;5052861;28;20847;-84
2023/01/05 04:36:06;;;;;;;45.10;25.27;;;;;;;9.10;97.40;95481.38;5053338;28;20457;-84
2023/01/05 04:38:33;;;;;;;43.77;27.07;;;;;;;9.08;96.68;95479.81;5052481;28;20572;-84
2023/01/05 04:40:59;;;;;;;49.17;28.63;;;;;;;9.03;96.88;95477.53;5053609;28;20430;-84
2023/01/05 04:43:26;;;;;;;51.93;32.77;;;;;;;8.96;97.29;95465.78;5053744;28;20450;-85
2023/01/05 04:45:53;;;;;;;45.90;30.77;;;;;;;8.94;97.06;95478.13;5053411;28;20457;-84
2023/01/05 04:48:21;;;;;;;47.40;30.90;;;;;;;8.86;96.74;95480.44;5054316;28;20437;-85
2023/01/05 04:50:53;;;;;;;60.93;35.60;;;;;;;8.75;97.31;95481.19;5053798;28;20477;-84
2023/01/05 04:53:21;;;;;;;62.23;40.13;;;;;;;8.64;98.00;95476.69;5054038;28;20458;-84
2023/01/05 04:58:28;;;;;;;63.27;35.80;;;;;;;8.48;99.69;95486.50;5031846;28;20486;-85
2023/01/05 05:00:55;;;;;;;46.70;31.43;;;;;;;8.48;99.99;95491.75;5031680;28;20859;-84
2023/01/05 05:03:23;;;;;;;50.67;31.30;;;;;;;8.42;100.00;95496.56;5031390;28;21063;-84
2023/01/05 05:05:50;;;;;;;46.00;28.60;;;;;;;8.37;100.00;95495.06;5031353;28;20442;-84
2023/01/05 05:08:17;;;;;;;48.70;30.27;;;;;;;8.33;100.00;95495.34;5031447;28;20939;-84
2023/01/05 05:10:44;;;;;;;52.73;29.57;;;;;;;8.34;100.00;95494.44;5031667;28;20856;-85
2023/01/05 05:13:11;;;;;;;48.20;30.07;;;;;;;8.43;100.00;95500.84;5032650;28;20457;-85
2023/01/05 05:15:37;;;;;;;52.03;30.20;;;;;;;8.48;100.00;95504.00;5031688;28;20438;-87
2023/01/05 05:18:04;;;;;;;44.80;27.10;;;;;;;8.53;100.00;95502.72;5032208;28;20503;-87
2023/01/05 05:20:33;;;;;;;58.30;35.53;;;;;;;8.55;100.00;95508.69;5031637;28;20815;-84
2023/01/05 05:22:59;;;;;;;51.50;32.27;;;;;;;8.47;100.00;95495.31;5031497;28;20879;-84
2023/01/05 05:25:26;;;;;;;52.57;31.50;;;;;;;8.47;100.00;95508.38;4998617;28;20481;-85
2023/01/05 05:27:53;;;;;;;59.73;30.03;;;;;;;8.50;100.00;95512.56;5017503;28;20506;-84
2023/01/05 05:30:20;;;;;;;54.20;34.27;;;;;;;8.54;100.00;95512.25;5011497;28;21043;-84
2023/01/05 05:32:47;;;;;;;55.47;35.00;;;;;;;8.52;100.00;95503.66;5011515;28;20428;-84
2023/01/05 05:35:15;;;;;;;62.57;37.30;;;;;;;8.37;100.00;95500.28;5017736;28;20466;-83
2023/01/05 05:37:43;;;;;;;49.60;30.13;;;;;;;8.43;100.00;95499.06;5033596;28;20490;-83
2023/01/05 05:40:13;;;;;;;53.27;25.90;;;;;;;8.36;100.00;95492.53;5033093;28;20439;-83
2023/01/05 05:42:40;;;;;;;45.30;27.10;;;;;;;8.36;100.00;95495.16;4998527;28;20444;-84
2023/01/05 05:45:08;;;;;;;47.17;27.10;;;;;;;8.33;100.00;95484.88;5033327;28;20446;-83
2023/01/05 05:47:34;;;;;;;47.17;25.93;;;;;;;8.30;100.00;95478.06;5033683;28;20442;-84
2023/01/05 05:50:01;;;;;;;52.37;27.63;;;;;;;8.26;100.00;95481.00;5034768;28;20823;-85
2023/01/05 05:52:28;;;;;;;46.67;27.73;;;;;;;8.28;100.00;95476.50;5037039;28;20458;-84
2023/01/05 05:54:56;;;;;;;43.83;26.53;;;;;;;8.30;100.00;95465.00;5036840;28;20439;-84
2023/01/05 05:57:23;;;;;;;47.07;28.70;;;;;;;8.34;100.00;95465.66;5036802;28;20997;-84
2023/01/05 05:59:50;;;;;;;50.53;30.13;;;;;;;8.39;100.00;95461.00;5036782;28;20481;-85
2023/01/05 06:02:18;;;;;;;53.07;30.67;;;;;;;8.44;100.00;95458.91;5036913;28;20497;-86
2023/01/05 06:04:45;;;;;;;49.80;30.23;;;;;;;8.49;100.00;95462.03;5036713;28;20473;-84
2023/01/05 06:07:12;;;;;;;58.93;29.07;;;;;;;8.51;99.74;95454.91;5037333;28;20502;-85
2023/01/05 06:09:39;;;;;;;46.93;28.27;;;;;;;8.52;98.68;95450.53;5037394;28;20458;-85
2023/01/05 06:18:51;;;;;;;48.17;31.80;;;;;;;8.46;98.97;95440.50;5049271;28;20472;-86
2023/01/05 06:21:20;;;;;;;48.80;30.87;;;;;;;8.42;99.20;95442.47;5056491;28;20464;-87
2023/01/05 06:23:47;;;;;;;53.17;34.67;;;;;;;8.40;98.75;95438.28;5056061;28;20449;-87
2023/01/05 06:26:14;;;;;;;53.63;33.50;;;;;;;8.31;99.25;95437.06;5055957;28;20454;-87
2023/01/05 06:28:40;;;;;;;55.83;35.00;;;;;;;8.26;99.74;95434.78;5055844;28;20454;-86
2023/01/05 06:31:07;;;;;;;56.73;36.47;;;;;;;8.22;100.00;95428.09;5055413;28;20862;-86
2023/01/05 06:33:34;;;;;;;88.80;48.83;;;;;;;8.13;100.00;95433.09;5055474;28;20940;-87
2023/01/05 06:36:02;;;;;;;89.53;45.60;;;;;;;8.08;100.00;95425.53;5055386;28;20465;-87
2023/01/05 06:38:29;;;;;;;101.47;56.40;;;;;;;8.05;100.00;95418.75;5055034;28;20862;-86
2023/01/05 06:40:57;;;;;;;94.73;56.63;;;;;;;8.12;100.00;95420.97;5055345;28;20455;-86
2023/01/05 06:43:23;;;;;;;99.73;54.90;;;;;;;8.21;100.00;95420.34;5055402;28;20511;-86
2023/01/05 06:45:51;;;;;;;91.50;52.10;;;;;;;8.20;100.00;95414.28;5055199;28;20522;-87
2023/01/05 06:48:18;;;;;;;107.77;56.00;;;;;;;8.24;100.00;95418.34;5056509;28;20446;-87
2023/01/05 06:50:45;;;;;;;138.47;65.50;;;;;;;8.34;100.00;95418.59;5055781;28;20788;-87
2023/01/05 06:53:13;;;;;;;162.73;73.07;;;;;;;8.44;100.00;95427.50;5055337;28;20453;-87
2023/01/05 06:55:40;;;;;;;149.87;72.80;;;;;;;8.51;99.65;95428.75;5055083;28;20441;-85
2023/01/05 06:58:07;;;;;;;138.53;69.17;;;;;;;8.56;99.01;95431.91;5055882;28;20896;-86
2023/01/05 07:00:34;;;;;;;146.37;76.37;;;;;;;8.66;98.60;95438.16;5055303;28;20447;-86
2023/01/05 07:03:01;;;;;;;144.47;69.73;;;;;;;8.69;98.70;95427.53;5054514;28;20476;-87
2023/01/05 07:05:27;;;;;;;94.00;53.77;;;;;;;8.71;98.77;95437.03;5055785;28;20445;-87
2023/01/05 07:07:55;;;;;;;99.10;53.17;;;;;;;8.74;98.66;95442.91;5055631;28;20436;-87
2023/01/05 07:10:23;;;;;;;79.70;49.63;;;;;;;8.79;98.70;95442.56;5055360;28;20524;-86
2023/01/05 07:12:50;;;;;;;88.47;49.20;;;;;;;8.82;97.87;95437.13;5054929;28;20492;-85
2023/01/05 07:15:17;;;;;;;87.87;48.27;;;;;;;8.92;97.66;95435.53;5055662;28;20434;-85
2023/01/05 07:17:43;;;;;;;79.80;48.33;;;;;;;9.06;97.74;95443.28;5046828;28;20465;-86
2023/01/05 07:20:10;;;;;;;73.10;42.53;;;;;;;9.05;97.59;95440.78;5035320;28;20892;-85
2023/01/05 07:22:37;;;;;;;68.13;40.23;;;;;;;9.10;97.53;95438.66;5036005;28;20447;-90
2023/01/05 07:25:04;;;;;;;72.43;41.07;;;;;;;9.18;97.44;95439.78;5035649;28;20435;-85
2023/01/05 07:27:33;;;;;;;79.20;40.20;;;;;;;9.17;96.26;95432.03;5035133;28;20428;-83
2023/01/05 07:36:43;;;;;;;45.37;29.60;;;;;;;9.19;95.20;95430.16;5034341;28;20925;-83
2023/01/05 07:39:10;;;;;;;54.90;29.93;;;;;;;9.32;95.88;95431.81;5034927;28;20489;-88
2023/01/05 07:41:37;;;;;;;40.90;27.33;;;;;;;9.41;94.86;95427.69;5046838;28;20989;-83
2023/01/05 07:44:05;;;;;;;48.93;26.80;;;;;;;9.37;94.63;95420.16;5055196;28;20780;-82
2023/01/05 08:06:51;;;;;;;36.73;24.73;;;;;;;8.70;98.00;95391.72;5054181;28;20471;-83
2023/01/05 08:12:02;;;;;;;35.17;21.97;;;;;;;8.94;97.37;95384.75;5054076;28;20459;-82
2023/01/05 08:14:29;;;;;;;31.90;20.60;;;;;;;9.10;97.14;95383.69;5054011;28;20441;-83
2023/01/05 08:16:55;;;;;;;35.57;22.80;;;;;;;9.18;96.46;95376.94;5053974;28;20496;-84
2023/01/05 08:19:22;;;;;;;34.27;21.67;;;;;;;9.28;95.86;95372.75;5054226;28;21073;-82
2023/01/05 08:21:50;;;;;;;32.93;19.57;;;;;;;9.08;95.81;95377.72;5054070;28;20451;-82
2023/01/05 08:24:17;;;;;;;29.70;18.23;;;;;;;9.12;95.93;95377.41;5053837;28;20921;-83
2023/01/05 08:26:44;;;;;;;29.47;19.07;;;;;;;9.04;95.83;95377.09;5054165;28;20431;-82
2023/01/05 08:29:11;;;;;;;31.30;20.37;;;;;;;9.14;95.03;95382.50;5019037;28;20449;-85
2023/01/05 08:31:39;;;;;;;35.93;21.93;;;;;;;9.29;95.15;95384.06;5054158;28;20865;-85
2023/01/05 08:34:06;;;;;;;33.03;20.40;;;;;;;9.32;94.83;95382.06;5021503;28;20455;-85
2023/01/05 08:36:33;;;;;;;35.10;20.70;;;;;;;9.44;95.35;95387.34;5036640;28;20446;-85
2023/01/05 08:39:01;;;;;;;36.30;23.47;;;;;;;9.55;94.53;95380.38;5052578;28;20618;-84
2023/01/05 08:41:31;;;;;;;37.33;22.20;;;;;;;9.62;94.25;95386.00;5017422;28;20443;-84
2023/01/05 08:44:00;;;;;;;32.90;22.87;;;;;;;9.65;94.48;95390.19;5051492;28;20466;-85
2023/01/05 08:46:31;;;;;;;48.70;26.73;;;;;;;9.59;93.81;95387.06;5052283;28;20438;-84
2023/01/05 08:48:59;;;;;;;52.20;28.97;;;;;;;9.48;93.86;95387.00;5052786;28;20795;-84
2023/01/05 08:51:27;;;;;;;48.47;28.77;;;;;;;9.38;94.27;95375.53;5052462;28;21018;-85
2023/01/05 08:53:56;;;;;;;44.07;24.93;;;;;;;9.40;95.09;95385.88;5052645;28;20449;-85
2023/01/05 08:56:25;;;;;;;44.43;26.43;;;;;;;9.48;95.57;95373.91;5052614;28;20970;-85
2023/01/05 08:58:55;;;;;;;40.73;25.00;;;;;;;9.43;94.70;95373.41;5052319;28;20513;-84
2023/01/05 09:01:22;;;;;;;35.03;23.83;;;;;;;9.49;94.59;95370.34;5052717;28;20610;-85
2023/01/05 09:03:49;;;;;;;33.80;23.03;;;;;;;9.57;93.90;95368.00;5052681;28;20437;-85
2023/01/05 09:06:17;;;;;;;43.87;24.03;;;;;;;9.56;93.71;95371.59;5052090;28;20490;-85
2023/01/05 09:08:45;;;;;;;40.03;25.20;;;;;;;9.59;93.06;95360.03;5052444;28;20442;-84
2023/01/05 09:11:14;;;;;;;38.17;26.10;;;;;;;9.65;92.45;95354.34;5052477;28;20853;-84
2023/01/05 09:13:46;;;;;;;34.90;22.40;;;;;;;9.70;92.14;95343.50;5052092;28;20993;-84
2023/01/05 09:16:15;;;;;;;33.30;21.37;;;;;;;9.82;91.43;95337.34;5052471;28;20524;-85
2023/01/05 09:18:42;;;;;;;34.87;21.43;;;;;;;9.86;91.21;95336.19;5052157;28;20489;-85
2023/01/05 09:21:10;;;;;;;38.57;20.93;;;;;;;9.96;90.28;95324.06;5052318;28;20481;-85
2023/01/05 09:23:38;;;;;;;42.83;22.83;;;;;;;10.10;90.11;95312.50;5052206;28;20443;-84
2023/01/05 09:26:06;;;;;;;38.73;20.80;;;;;;;10.26;89.58;95305.19;5055524;28;20435;-85
2023/01/05 09:28:35;;;;;;;37.73;20.57;;;;;;;10.30;87.41;95296.13;5056002;28;20450;-85
2023/01/05 09:31:08;;;;;;;39.63;23.10;;;;;;;10.53;87.23;95291.72;5056446;28;20490;-85
2023/01/05 09:33:35;;;;;;;32.23;20.87;;;;;;;10.47;86.93;95285.16;5056140;28;20991;-85
2023/01/05 09:36:02;;;;;;;32.60;19.93;;;;;;;10.58;86.22;95278.25;5056207;28;20492;-85
2023/01/05 09:38:29;;;;;;;32.30;20.23;;;;;;;10.28;87.40;95268.34;5056211;28;20466;-85
2023/01/05 09:41:02;;;;;;;36.80;21.97;;;;;;;10.31;87.09;95263.69;5020967;28;20518;-85
2023/01/05 09:43:34;;;;;;;33.43;21.40;;;;;;;10.52;87.28;95269.91;5056329;28;20445;-84
2023/01/05 09:46:04;;;;;;;34.93;22.20;;;;;;;10.71;86.85;95271.09;5055916;28;20883;-85
2023/01/05 09:48:38;;;;;;;31.67;21.20;;;;;;;10.76;85.76;95261.06;5055933;28;20465;-85
2023/01/05 09:51:05;;;;;;;31.00;21.00;;;;;;;10.88;85.47;95257.44;5055778;28;20513;-85
2023/01/05 09:53:34;;;;;;;35.33;19.43;;;;;;;11.02;83.89;95244.03;5056232;28;20464;-85
2023/01/05 09:56:01;;;;;;;25.37;17.03;;;;;;;11.01;82.70;95245.00;5057417;28;20452;-85
2023/01/05 09:58:34;;;;;;;26.33;18.10;;;;;;;11.14;81.53;95236.94;5055988;28;20865;-85
2023/01/05 10:01:07;;;;;;;34.20;21.50;;;;;;;11.06;81.52;95232.31;5056290;28;20463;-84
2023/01/05 10:03:38;;;;;;;33.20;20.37;;;;;;;10.98;83.55;95226.00;5055518;28;20497;-84
2023/01/05 10:06:06;;;;;;;32.73;20.63;;;;;;;10.89;83.39;95224.97;5056017;28;21037;-85
2023/01/05 10:08:39;;;;;;;30.57;19.83;;;;;;;10.73;82.93;95220.13;5055926;28;20447;-85
2023/01/05 10:14:00;;;;;;;32.23;22.43;;;;;;;10.53;84.93;95208.59;5055476;28;20451;-85
2023/01/05 10:16:28;;;;;;;28.17;18.37;;;;;;;10.71;84.48;95201.06;5055694;28;20509;-85
2023/01/05 10:18:56;;;;;;;30.43;19.80;;;;;;;10.66;84.52;95218.09;5055418;28;20942;-85
2023/01/05 10:21:36;;;;;;;32.27;20.93;;;;;;;10.55;84.42;95206.69;5055502;28;20437;-85
2023/01/05 10:24:16;;;;;;;32.03;21.60;;;;;;;10.40;86.48;95207.88;5055276;28;20455;-85
2023/01/05 10:26:49;;;;;;;32.17;20.10;;;;;;;10.59;85.36;95196.78;5055381;28;20536;-86
2023/01/05 10:29:19;;;;;;;34.80;22.57;;;;;;;10.69;85.56;95199.47;5055419;28;20821;-85
2023/01/05 10:31:52;;;;;;;35.93;21.13;;;;;;;10.85;84.95;95194.69;5055231;28;20452;-85
2023/01/05 10:34:23;;;;;;;29.60;22.00;;;;;;;11.05;83.90;95196.53;5055337;28;20943;-85
2023/01/05 10:37:12;;;;;;;34.57;21.13;;;;;;;11.22;82.98;95192.50;5053778;28;20451;-86
2023/01/05 10:40:03;;;;;;;47.30;21.37;;;;;;;11.17;82.05;95182.38;4973654;28;20538;-85
2023/01/05 10:42:45;;;;;;;42.77;22.87;;;;;;;11.29;82.04;95184.97;4973878;28;20451;-85
2023/01/05 10:45:14;;;;;;;29.43;20.90;;;;;;;11.17;82.21;95189.41;4973792;28;20535;-85
2023/01/05 10:47:43;;;;;;;35.30;22.13;;;;;;;11.12;82.23;95181.91;4973941;28;20480;-85
2023/01/05 10:50:27;;;;;;;38.00;19.67;;;;;;;11.06;82.11;95174.56;4926710;28;20441;-84
2023/01/05 10:52:54;;;;;;;29.73;19.10;;;;;;;11.28;81.09;95172.78;4925840;28;20452;-84
2023/01/05 10:55:22;;;;;;;33.90;20.20;;;;;;;11.39;81.18;95159.59;4925422;28;20449;-85
2023/01/05 10:57:49;;;;;;;37.57;20.70;;;;;;;11.51;80.11;95157.72;4983396;28;21001;-85
2023/01/05 11:00:18;;;;;;;30.97;19.20;;;;;;;11.59;79.57;95155.28;4992918;28;20482;-85
2023/01/05 11:02:49;;;;;;;28.73;20.33;;;;;;;11.65;78.99;95141.63;4993070;28;20943;-85
2023/01/05 11:05:34;;;;;;;29.17;18.50;;;;;;;11.65;77.61;95149.50;4976752;28;20515;-85
2023/01/05 11:08:03;;;;;;;34.83;20.97;;;;;;;11.67;78.47;95145.78;4934597;29;20446;-86
2023/01/05 11:10:33;;;;;;;27.50;20.30;;;;;;;11.75;78.39;95145.94;4934865;29;20521;-85
2023/01/05 11:13:03;;;;;;;42.40;20.00;;;;;;;11.86;77.83;95144.25;4935224;29;21020;-85
2023/01/05 11:15:33;;;;;;;27.50;18.73;;;;;;;11.88;77.21;95134.44;4934969;29;20518;-85
2023/01/05 11:18:00;;;;;;;32.20;21.07;;;;;;;11.91;76.73;95139.44;4991483;28;20451;-85
2023/01/05 11:20:28;;;;;;;32.77;18.83;;;;;;;11.93;77.20;95135.69;4992888;28;21013;-85
2023/01/05 11:22:57;;;;;;;31.73;19.30;;;;;;;11.88;77.04;95132.63;4992788;28;20542;-84
2023/01/05 11:25:27;;;;;;;27.23;19.50;;;;;;;11.92;78.18;95126.16;4992519;28;20454;-85
2023/01/05 11:28:10;;;;;;;25.90;18.77;;;;;;;12.05;77.48;95123.28;4976341;28;20472;-85
2023/01/05 11:30:38;;;;;;;32.67;21.87;;;;;;;11.99;76.35;95129.91;4953608;29;20944;-85
2023/01/05 11:33:14;;;;;;;38.27;20.83;;;;;;;12.18;76.69;95125.69;4953427;29;20461;-85
2023/01/05 11:35:44;;;;;;;33.20;21.57;;;;;;;12.21;75.86;95125.41;4953864;29;20541;-85
2023/01/05 11:38:23;;;;;;;28.63;21.40;;;;;;;12.15;75.11;95118.91;4953554;29;20976;-85
2023/01/05 11:40:50;;;;;;;37.63;21.60;;;;;;;12.20;75.68;95116.69;4953483;29;20635;-84
2023/01/05 11:43:20;;;;;;;37.20;21.20;;;;;;;12.25;75.61;95114.47;4953508;29;20453;-84
2023/01/05 11:45:50;;;;;;;43.60;21.90;;;;;;;12.31;75.32;95107.84;5008668;28;20513;-84
2023/01/05 11:48:20;;;;;;;30.90;20.60;;;;;;;12.34;75.23;95103.13;5031274;28;20456;-84
2023/01/05 11:50:50;;;;;;;30.73;21.07;;;;;;;12.32;74.88;95105.06;5031394;28;20933;-84
2023/01/05 11:53:35;;;;;;;27.87;19.67;;;;;;;12.00;75.20;95099.16;5031626;28;20456;-85
2023/01/05 11:56:04;;;;;;;31.33;19.13;;;;;;;12.08;76.43;95099.31;5031102;28;20446;-84
2023/01/05 11:58:33;;;;;;;30.93;19.17;;;;;;;12.13;76.22;95098.91;5031217;28;20445;-84
2023/01/05 12:01:44;;;;;;;40.03;21.80;;;;;;;12.03;76.59;95097.09;5031228;28;20482;-84
2023/01/05 12:04:42;;;;;;;31.73;20.73;;;;;;;12.08;75.51;95092.28;5031144;28;20798;-85
2023/01/05 12:07:22;;;;;;;46.23;21.70;;;;;;;12.26;75.73;95091.63;4940994;28;20456;-84
2023/01/05 12:09:58;;;;;;;28.20;18.67;;;;;;;12.40;75.30;95088.59;4972561;28;20429;-85
2023/01/05 12:12:40;;;;;;;30.67;20.20;;;;;;;12.55;74.50;95089.88;4972091;28;20539;-84
2023/01/05 12:15:35;;;;;;;31.10;20.43;;;;;;;12.69;73.36;95088.63;4972093;28;20515;-85
2023/01/05 12:18:17;;;;;;;32.60;20.03;;;;;;;12.74;72.74;95080.34;4955669;28;20504;-88
2023/01/05 12:20:57;;;;;;;35.63;20.10;;;;;;;12.76;72.23;95092.41;4972298;28;20577;-85
2023/01/05 12:23:52;;;;;;;37.20;21.10;;;;;;;12.74;72.06;95086.44;4972604;28;21002;-85
2023/01/05 12:26:27;;;;;;;27.77;19.30;;;;;;;12.81;71.99;95084.91;4923976;28;20445;-85
2023/01/05 12:29:20;;;;;;;27.37;20.47;;;;;;;12.88;71.34;95080.75;4972162;28;20835;-86
2023/01/05 12:32:06;;;;;;;25.97;18.10;;;;;;;12.88;71.88;95069.38;4972118;28;20508;-84
2023/01/05 12:35:03;;;;;;;32.43;20.50;;;;;;;12.88;71.69;95049.13;4973368;28;20567;-86
2023/01/05 12:37:41;;;;;;;36.30;18.73;;;;;;;12.86;72.16;95040.53;4972869;28;20521;-85
2023/01/05 12:40:31;;;;;;;29.10;18.27;;;;;;;12.75;71.73;95026.72;4972671;28;20476;-84
2023/01/05 12:43:02;;;;;;;32.40;19.60;;;;;;;12.68;71.84;95016.72;4947508;28;20468;-84
2023/01/05 12:48:56;;;;;;;33.37;19.93;;;;;;;12.74;71.44;95022.41;5052978;28;20854;-84
2023/01/05 12:51:27;;;;;;;30.83;18.70;;;;;;;12.70;72.16;95024.47;5054906;28;20476;-86
2023/01/05 12:53:59;;;;;;;27.43;17.37;;;;;;;12.76;71.44;95018.66;5054226;28;20422;-85
2023/01/05 12:56:30;;;;;;;27.30;17.97;;;;;;;12.79;70.97;95020.19;5053769;28;20446;-85
2023/01/05 12:59:13;;;;;;;25.43;17.60;;;;;;;12.76;71.40;95034.47;5052816;28;20940;-82
2023/01/05 13:01:45;;;;;;;34.33;20.07;;;;;;;12.74;72.20;95035.56;5018921;28;20524;-89
2023/01/05 13:49:24;;;;;;;31.33;19.03;;;;;;;14.77;74.84;95020.53;5130982;27;20537;-85
2023/01/05 13:51:54;;;;;;;38.13;20.70;;;;;;;14.30;68.93;95005.88;5068528;28;20940;-85
2023/01/05 13:54:38;;;;;;;28.07;18.53;;;;;;;14.05;69.43;94999.50;5068505;28;20444;-82
2023/01/05 13:57:12;;;;;;;34.57;19.63;;;;;;;13.81;69.89;95003.50;5069099;28;20819;-82
2023/01/05 13:59:41;;;;;;;34.47;19.43;;;;;;;13.55;71.25;94995.44;5069017;28;20420;-82
2023/01/05 14:02:28;;;;;;;31.03;18.80;;;;;;;13.35;70.97;94996.50;5068473;28;20962;-85
2023/01/05 14:04:57;;;;;;;31.97;18.37;;;;;;;13.20;70.96;94996.13;5068846;28;20443;-83
2023/01/05 14:11:10;;;;;;;27.60;16.80;;;;;;;12.67;73.02;94996.63;5068552;28;20448;-84
2023/01/05 14:13:42;;;;;;;32.80;17.10;;;;;;;12.68;73.42;94990.38;5018463;28;20444;-84
2023/01/05 14:16:46;;;;;;;24.17;16.63;;;;;;;12.47;74.15;95007.31;5068301;28;20452;-86
2023/01/05 14:19:15;;;;;;;25.07;16.30;;;;;;;12.36;74.01;95008.25;5068098;28;20939;-86
2023/01/05 14:22:21;;;;;;;26.40;15.70;;;;;;;12.43;74.21;94990.94;5068030;28;20844;-86
2023/01/05 14:24:48;;;;;;;26.90;17.20;;;;;;;12.30;74.46;94993.03;5068529;28;21031;-91
2023/01/05 14:30:37;;;;;;;19.27;13.60;;;;;;;11.89;75.97;94997.56;5119913;28;20466;-86
2023/01/05 14:33:05;;;;;;;34.43;15.27;;;;;;;12.06;75.86;94996.06;5111019;28;20450;-83